createdAt,value
2023-03-30T00:00:18.395Z,3.08
2023-03-30T00:03:04.869Z,2.97
2023-03-30T00:05:56.734Z,3.22
2023-03-30T00:08:41.918Z,2.78
2023-03-30T00:11:28.034Z,3.20
2023-03-30T00:14:13.444Z,2.90
2023-03-30T00:16:59.003Z,3.15
2023-03-30T00:19:44.440Z,2.65
2023-03-30T00:22:29.835Z,2.72
2023-03-30T00:25:17.484Z,3.15
2023-03-30T00:28:03.112Z,2.60
2023-03-30T00:30:49.485Z,2.58
2023-03-30T00:33:45.591Z,3.35
2023-03-30T00:36:37.086Z,2.55
2023-03-30T00:39:23.276Z,2.90
2023-03-30T00:42:16.749Z,2.70
2023-03-30T00:45:21.942Z,2.43
2023-03-30T00:48:11.306Z,2.72
2023-03-30T00:51:15.853Z,2.88
2023-03-30T00:54:08.619Z,2.50
2023-03-30T00:56:54.077Z,2.58
2023-03-30T00:59:40.668Z,2.13
2023-03-30T01:02:30.625Z,2.80
2023-03-30T01:05:16.609Z,4.03
2023-03-30T01:08:07.779Z,2.90
2023-03-30T01:10:53.914Z,2.65
2023-03-30T01:13:44.476Z,3.38
2023-03-30T01:16:35.845Z,2.50
2023-03-30T01:19:48.323Z,2.58
2023-03-30T01:22:57.021Z,2.55
2023-03-30T01:26:00.965Z,3.63
2023-03-30T01:28:49.406Z,3.08
2023-03-30T01:32:02.069Z,3.00
2023-03-30T01:34:51.745Z,3.83
2023-03-30T01:38:08.335Z,2.65
2023-03-30T01:41:22.581Z,2.40
2023-03-30T01:44:13.702Z,2.78
2023-03-30T01:47:33.952Z,3.17
2023-03-30T01:50:26.635Z,3.17
2023-03-30T01:53:37.466Z,3.03
2023-03-30T01:56:33.748Z,4.05
2023-03-30T02:00:01.685Z,2.50
2023-03-30T02:03:10.870Z,2.90
2023-03-30T02:06:05.500Z,3.28
2023-03-30T02:08:54.585Z,3.13
2023-03-30T02:11:43.560Z,2.40
2023-03-30T02:14:33.530Z,3.65
2023-03-30T02:17:23.111Z,2.97
2023-03-30T02:20:10.771Z,2.90
2023-03-30T02:22:57.259Z,2.60
2023-03-30T02:25:42.526Z,2.90
2023-03-30T02:28:28.068Z,3.45
2023-03-30T02:31:15.615Z,3.75
2023-03-30T02:34:10.504Z,2.85
2023-03-30T02:39:58.351Z,2.78
2023-03-30T02:43:11.699Z,3.70
2023-03-30T02:46:18.759Z,3.40
2023-03-30T02:49:34.607Z,2.25
2023-03-30T02:52:36.968Z,3.90
2023-03-30T02:55:36.389Z,3.35
2023-03-30T02:59:01.828Z,3.10
2023-03-30T03:01:47.995Z,3.13
2023-03-30T03:04:35.272Z,3.65
2023-03-30T03:07:21.895Z,4.05
2023-03-30T03:10:08.249Z,2.70
2023-03-30T03:12:54.022Z,3.65
2023-03-30T03:15:39.450Z,2.90
2023-03-30T03:18:25.027Z,2.63
2023-03-30T03:21:11.735Z,2.75
2023-03-30T03:23:57.398Z,3.78
2023-03-30T03:26:43.521Z,2.58
2023-03-30T03:29:28.940Z,3.03
2023-03-30T03:32:14.793Z,2.75
2023-03-30T03:35:00.442Z,2.72
2023-03-30T03:37:46.003Z,2.53
2023-03-30T03:40:31.294Z,3.17
2023-03-30T03:43:17.032Z,2.58
2023-03-30T03:46:02.467Z,2.50
2023-03-30T03:48:48.208Z,3.25
2023-03-30T03:51:33.904Z,2.70
2023-03-30T03:54:19.258Z,2.53
2023-03-30T03:57:05.738Z,2.40
2023-03-30T03:59:57.081Z,2.83
2023-03-30T04:02:44.816Z,2.40
2023-03-30T04:05:30.411Z,3.38
2023-03-30T04:08:18.280Z,2.45
2023-03-30T04:11:12.137Z,3.13
2023-03-30T04:13:57.563Z,2.53
2023-03-30T04:16:43.913Z,2.75
2023-03-30T04:19:31.739Z,3.20
2023-03-30T04:22:19.913Z,3.25
2023-03-30T04:25:05.720Z,3.03
2023-03-30T04:27:52.000Z,3.20
2023-03-30T04:30:37.237Z,2.47
2023-03-30T04:33:22.702Z,2.42
2023-03-30T04:36:08.628Z,2.80
2023-03-30T04:39:03.452Z,2.88
2023-03-30T04:41:50.783Z,2.38
2023-03-30T04:44:36.873Z,2.60
2023-03-30T04:47:22.335Z,3.33
2023-03-30T04:50:08.024Z,3.10
2023-03-30T04:52:53.506Z,3.63
2023-03-30T04:55:38.861Z,3.95
2023-03-30T04:58:24.467Z,5.57
2023-03-30T05:01:10.304Z,4.20
2023-03-30T05:03:56.089Z,4.28
2023-03-30T05:06:42.101Z,3.22
2023-03-30T05:09:28.343Z,3.47
2023-03-30T05:12:16.360Z,4.43
2023-03-30T05:15:01.708Z,5.15
2023-03-30T05:17:47.018Z,4.60
2023-03-30T05:20:32.642Z,5.05
2023-03-30T05:23:18.344Z,3.47
2023-03-30T05:26:04.669Z,4.40
2023-03-30T05:28:51.544Z,4.15
2023-03-30T05:31:37.039Z,3.70
2023-03-30T05:34:22.312Z,3.67
2023-03-30T05:37:07.854Z,3.05
2023-03-30T05:39:53.856Z,3.22
2023-03-30T05:42:39.407Z,2.78
2023-03-30T05:45:24.915Z,2.67
2023-03-30T05:48:10.664Z,3.58
2023-03-30T05:50:56.160Z,3.10
2023-03-30T05:53:41.457Z,3.30
2023-03-30T05:56:27.368Z,2.28
2023-03-30T05:59:13.148Z,2.70
2023-03-30T06:01:58.995Z,2.20
2023-03-30T06:04:44.828Z,2.47
2023-03-30T06:07:30.806Z,2.25
2023-03-30T06:10:16.752Z,2.13
2023-03-30T06:13:02.445Z,2.85
2023-03-30T06:15:48.683Z,2.53
2023-03-30T06:18:34.530Z,2.90
2023-03-30T06:21:20.756Z,2.65
2023-03-30T06:24:06.777Z,3.13
2023-03-30T06:26:52.363Z,2.80
2023-03-30T06:29:38.375Z,2.28
2023-03-30T06:32:24.006Z,2.97
2023-03-30T06:35:10.064Z,3.58
2023-03-30T06:37:55.833Z,3.97
2023-03-30T06:40:41.792Z,3.20
2023-03-30T06:43:27.167Z,3.35
2023-03-30T06:46:14.041Z,3.72
2023-03-30T06:48:59.922Z,4.43
2023-03-30T06:51:45.371Z,3.20
2023-03-30T06:54:30.885Z,4.53
2023-03-30T06:57:16.286Z,4.07
2023-03-30T07:00:02.135Z,3.67
2023-03-30T07:02:47.424Z,2.92
2023-03-30T07:05:33.013Z,3.40
2023-03-30T07:08:19.983Z,3.20
2023-03-30T07:11:09.664Z,3.40
2023-03-30T07:13:56.521Z,3.33
2023-03-30T07:16:42.490Z,5.13
2023-03-30T07:19:28.116Z,3.45
2023-03-30T07:22:13.591Z,3.50
2023-03-30T07:24:59.022Z,3.33
2023-03-30T07:27:44.734Z,3.00
2023-03-30T07:30:30.298Z,3.30
2023-03-30T07:33:15.889Z,3.35
2023-03-30T07:36:01.695Z,3.53
2023-03-30T07:38:47.568Z,2.75
2023-03-30T07:41:32.864Z,3.28
2023-03-30T07:44:18.600Z,3.60
2023-03-30T07:47:06.782Z,2.78
2023-03-30T07:49:52.180Z,3.20
2023-03-30T07:52:38.035Z,2.72
2023-03-30T07:55:23.454Z,3.67
2023-03-30T07:58:08.709Z,3.22
2023-03-30T08:00:54.125Z,2.60
2023-03-30T08:03:39.667Z,3.65
2023-03-30T08:06:25.529Z,2.85
2023-03-30T08:09:11.096Z,2.22
2023-03-30T08:11:57.008Z,3.10
2023-03-30T08:14:42.396Z,2.05
2023-03-30T08:17:27.961Z,2.60
2023-03-30T08:20:13.849Z,1.98
2023-03-30T08:22:59.391Z,1.88
2023-03-30T08:25:47.124Z,2.22
2023-03-30T08:28:32.945Z,1.80
2023-03-30T08:31:21.100Z,2.08
2023-03-30T08:34:08.037Z,2.00
2023-03-30T08:36:54.883Z,2.10
2023-03-30T08:39:40.290Z,2.70
2023-03-30T08:42:44.228Z,2.22
2023-03-30T08:45:40.433Z,2.42
2023-03-30T08:48:32.405Z,2.10
2023-03-30T08:51:28.172Z,2.05
2023-03-30T08:54:17.456Z,2.70
2023-03-30T08:57:09.969Z,1.73
2023-03-30T09:00:30.988Z,2.33
2023-03-30T09:03:30.046Z,2.50
2023-03-30T09:06:28.890Z,2.13
2023-03-30T09:09:18.574Z,2.13
2023-03-30T09:12:22.695Z,2.10
2023-03-30T09:15:32.811Z,1.90
2023-03-30T09:18:29.669Z,2.63
2023-03-30T09:21:16.083Z,2.50
2023-03-30T09:24:12.737Z,2.90
2023-03-30T09:27:17.055Z,3.13
2023-03-30T09:30:15.955Z,2.55
2023-03-30T09:33:27.429Z,2.63
2023-03-30T09:36:31.496Z,2.17
2023-03-30T09:39:22.132Z,3.65
2023-03-30T09:42:17.180Z,2.30
2023-03-30T09:45:11.548Z,2.40
2023-03-30T09:48:02.646Z,3.17
2023-03-30T09:50:48.387Z,2.60
2023-03-30T09:53:35.522Z,2.30
2023-03-30T09:56:37.255Z,2.40
2023-03-30T09:59:37.557Z,2.90
2023-03-30T10:02:25.588Z,2.10
2023-03-30T10:05:18.336Z,2.35
2023-03-30T10:08:07.283Z,2.53
2023-03-30T10:10:57.600Z,2.65
2023-03-30T10:13:43.875Z,1.90
2023-03-30T10:16:34.453Z,2.15
2023-03-30T10:19:21.734Z,2.17
2023-03-30T10:22:22.358Z,2.22
2023-03-30T10:25:18.002Z,2.40
2023-03-30T10:28:06.741Z,2.00
2023-03-30T10:31:02.451Z,2.28
2023-03-30T10:33:49.716Z,2.05
2023-03-30T10:36:39.801Z,1.92
2023-03-30T10:39:30.601Z,2.20
2023-03-30T10:42:18.673Z,2.53
2023-03-30T10:45:06.910Z,2.25
2023-03-30T10:48:12.494Z,2.33
2023-03-30T10:51:15.049Z,1.98
2023-03-30T10:54:37.438Z,2.42
2023-03-30T10:57:32.137Z,2.10
2023-03-30T11:00:22.309Z,2.30
2023-03-30T11:03:20.063Z,2.55
2023-03-30T11:06:22.933Z,2.25
2023-03-30T11:09:16.357Z,2.30
2023-03-30T11:12:06.732Z,2.40
2023-03-30T11:14:59.861Z,2.03
2023-03-30T11:18:08.512Z,2.10
2023-03-30T11:21:09.132Z,2.58
2023-03-30T11:24:21.941Z,2.38
2023-03-30T11:27:24.204Z,2.67
2023-03-30T11:30:19.271Z,2.38
2023-03-30T11:33:23.648Z,2.10
2023-03-30T11:36:18.944Z,1.80
2023-03-30T11:39:21.313Z,2.03
2023-03-30T11:42:25.249Z,2.55
2023-03-30T11:45:32.160Z,2.13
2023-03-30T11:48:39.091Z,2.30
2023-03-30T11:51:53.070Z,1.98
2023-03-30T11:55:03.627Z,2.28
2023-03-30T11:58:08.483Z,2.38
2023-03-30T12:01:27.014Z,2.13
2023-03-30T12:04:16.278Z,2.20
2023-03-30T12:07:02.245Z,2.30
2023-03-30T12:09:56.834Z,2.42
2023-03-30T12:12:44.390Z,2.33
2023-03-30T12:15:40.440Z,2.53
2023-03-30T12:18:35.343Z,2.00
2023-03-30T12:24:35.569Z,2.40
2023-03-30T12:27:22.868Z,2.10
2023-03-30T12:30:15.188Z,3.42
2023-03-30T12:33:10.447Z,2.20
2023-03-30T12:35:58.984Z,2.10
2023-03-30T12:38:46.794Z,2.05
2023-03-30T12:41:48.565Z,2.42
2023-03-30T12:44:48.719Z,2.55
2023-03-30T12:47:58.967Z,2.20
2023-03-30T12:51:15.704Z,2.17
2023-03-30T12:54:09.864Z,2.17
2023-03-30T12:57:07.342Z,2.45
2023-03-30T13:00:24.089Z,2.67
2023-03-30T13:03:22.730Z,2.47
2023-03-30T13:06:25.793Z,2.47
2023-03-30T13:09:31.720Z,3.42
2023-03-30T13:12:41.870Z,2.60
2023-03-30T13:15:33.261Z,2.53
2023-03-30T13:18:18.472Z,2.80
2023-03-30T13:21:17.098Z,2.33
2023-03-30T13:24:20.976Z,2.55
2023-03-30T13:27:18.128Z,2.60
2023-03-30T13:30:09.871Z,2.63
2023-03-30T13:33:12.442Z,2.42
2023-03-30T13:36:06.607Z,2.53
2023-03-30T13:39:08.487Z,2.83
2023-03-30T13:42:10.569Z,3.22
2023-03-30T13:45:21.950Z,2.35
2023-03-30T13:48:27.216Z,2.42
2023-03-30T13:51:16.523Z,2.40
2023-03-30T13:54:07.450Z,2.17
2023-03-30T13:57:02.044Z,2.50
2023-03-30T13:59:53.502Z,2.13
2023-03-30T14:02:41.493Z,2.10
2023-03-30T14:05:27.964Z,2.78
2023-03-30T14:08:13.490Z,2.35
2023-03-30T14:10:58.797Z,2.20
2023-03-30T14:13:47.408Z,2.78
2023-03-30T14:16:36.744Z,2.58
2023-03-30T14:19:32.202Z,2.40
2023-03-30T14:22:25.662Z,2.83
2023-03-30T14:25:40.824Z,2.42
2023-03-30T14:28:28.233Z,2.83
2023-03-30T14:31:19.556Z,3.10
2023-03-30T14:34:41.672Z,2.72
2023-03-30T14:37:29.443Z,2.28
2023-03-30T14:40:16.827Z,3.20
2023-03-30T14:43:02.757Z,2.33
2023-03-30T14:45:49.490Z,2.65
2023-03-30T14:48:43.974Z,2.70
2023-03-30T14:51:42.181Z,3.67
2023-03-30T14:54:28.514Z,3.00
2023-03-30T14:57:17.516Z,2.42
2023-03-30T15:00:18.642Z,2.63
2023-03-30T15:03:05.833Z,2.47
2023-03-30T15:05:51.666Z,2.67
2023-03-30T15:08:39.603Z,2.50
2023-03-30T15:11:27.775Z,2.58
2023-03-30T15:14:19.944Z,2.65
2023-03-30T15:17:19.142Z,2.55
2023-03-30T15:20:06.452Z,2.35
2023-03-30T15:22:52.018Z,3.08
2023-03-30T15:25:37.350Z,2.72
2023-03-30T15:28:22.785Z,2.53
2023-03-30T15:31:11.527Z,2.70
2023-03-30T15:33:59.853Z,2.70
2023-03-30T15:36:52.710Z,3.20
2023-03-30T15:39:48.978Z,2.53
2023-03-30T15:42:34.743Z,2.53
2023-03-30T15:45:20.166Z,2.92
2023-03-30T15:48:10.369Z,2.67
2023-03-30T15:51:39.727Z,3.10
2023-03-30T15:54:43.383Z,3.38
2023-03-30T15:57:30.876Z,2.42
2023-03-30T16:00:25.529Z,2.75
2023-03-30T16:05:58.630Z,3.08
2023-03-30T16:08:45.257Z,3.17
2023-03-30T16:11:30.767Z,2.80
2023-03-30T16:14:21.150Z,2.80
2023-03-30T16:17:06.446Z,3.05
2023-03-30T16:19:51.940Z,2.88
2023-03-30T16:22:37.512Z,2.70
2023-03-30T16:25:38.343Z,2.88
2023-03-30T16:28:31.292Z,3.50
2023-03-30T16:31:21.045Z,3.10
2023-03-30T16:34:07.896Z,3.15
2023-03-30T16:36:54.127Z,2.97
2023-03-30T16:39:39.930Z,3.20
2023-03-30T16:42:27.606Z,2.80
2023-03-30T16:45:13.401Z,3.70
2023-03-30T16:47:59.308Z,3.10
2023-03-30T16:50:46.695Z,3.47
2023-03-30T16:53:32.044Z,2.70
2023-03-30T16:56:18.436Z,2.90
2023-03-30T16:59:04.605Z,3.47
2023-03-30T17:01:50.875Z,3.30
2023-03-30T17:04:36.418Z,3.40
2023-03-30T17:07:21.814Z,3.00
2023-03-30T17:10:15.550Z,3.10
2023-03-30T17:13:01.530Z,3.42
2023-03-30T17:15:46.962Z,3.60
2023-03-30T17:18:32.362Z,3.40
2023-03-30T17:21:18.125Z,3.58
2023-03-30T17:24:03.644Z,3.13
2023-03-30T17:26:49.379Z,3.75
2023-03-30T17:29:34.911Z,3.55
2023-03-30T17:32:20.257Z,3.65
2023-03-30T17:35:06.422Z,3.45
2023-03-30T17:37:52.776Z,3.60
2023-03-30T17:40:38.916Z,3.53
2023-03-30T17:43:24.839Z,3.47
2023-03-30T17:46:13.189Z,3.60
2023-03-30T17:48:59.906Z,3.38
2023-03-30T17:51:45.664Z,3.45
2023-03-30T17:54:31.268Z,3.42
2023-03-30T17:57:16.854Z,2.95
2023-03-30T18:00:07.624Z,3.17
2023-03-30T18:02:53.989Z,3.67
2023-03-30T18:05:39.927Z,3.58
2023-03-30T18:08:26.628Z,4.00
2023-03-30T18:11:11.870Z,3.67
2023-03-30T18:13:57.378Z,3.30
2023-03-30T18:16:43.770Z,3.00
2023-03-30T18:19:29.432Z,4.10
2023-03-30T18:22:14.836Z,3.67
2023-03-30T18:25:02.063Z,3.45
2023-03-30T18:27:48.251Z,3.65
2023-03-30T18:30:37.631Z,3.90
2023-03-30T18:33:24.078Z,3.35
2023-03-30T18:36:14.815Z,3.53
2023-03-30T18:39:00.286Z,3.70
2023-03-30T18:41:45.997Z,3.67
2023-03-30T18:44:31.516Z,3.75
2023-03-30T18:47:17.448Z,3.40
2023-03-30T18:50:03.202Z,3.40
2023-03-30T18:52:48.583Z,3.70
2023-03-30T18:55:36.932Z,3.28
2023-03-30T18:58:25.538Z,3.22
2023-03-30T19:01:13.345Z,3.53
2023-03-30T19:03:59.520Z,3.40
2023-03-30T19:06:46.239Z,3.90
2023-03-30T19:09:42.673Z,3.47
2023-03-30T19:12:29.067Z,3.22
2023-03-30T19:15:19.571Z,3.00
2023-03-30T19:18:06.166Z,3.70
2023-03-30T19:20:55.161Z,3.58
2023-03-30T19:23:40.913Z,3.10
2023-03-30T19:26:26.297Z,3.92
2023-03-30T19:29:12.945Z,3.80
2023-03-30T19:31:58.868Z,3.20
2023-03-30T19:34:44.416Z,3.50
2023-03-30T19:37:30.161Z,3.47
2023-03-30T19:40:17.745Z,3.20
2023-03-30T19:43:02.987Z,4.10
2023-03-30T19:45:51.318Z,3.40
2023-03-30T19:48:37.106Z,3.58
2023-03-30T19:51:22.364Z,3.65
2023-03-30T19:54:08.182Z,3.15
2023-03-30T19:56:53.707Z,3.80
2023-03-30T19:59:39.112Z,3.63
2023-03-30T20:02:24.794Z,3.55
2023-03-30T20:05:12.873Z,4.00
2023-03-30T20:07:58.618Z,4.15
2023-03-30T20:10:49.343Z,4.10
2023-03-30T20:13:35.965Z,3.88
2023-03-30T20:16:22.116Z,4.30
2023-03-30T20:19:22.548Z,4.10
2023-03-30T20:22:15.028Z,4.20
2023-03-30T20:25:00.183Z,4.10
2023-03-30T20:27:45.991Z,4.22
2023-03-30T20:30:31.256Z,3.83
2023-03-30T20:33:16.772Z,4.82
2023-03-30T20:36:02.359Z,4.32
2023-03-30T20:38:49.298Z,4.28
2023-03-30T20:41:42.508Z,4.63
2023-03-30T20:44:31.008Z,4.25
2023-03-30T20:47:17.745Z,4.45
2023-03-30T20:50:05.003Z,4.10
2023-03-30T20:52:52.984Z,3.63
2023-03-30T20:55:38.559Z,3.80
2023-03-30T20:58:24.790Z,4.28
2023-03-30T21:01:25.527Z,4.80
2023-03-30T21:04:11.123Z,4.13
2023-03-30T21:06:56.843Z,4.05
2023-03-30T21:09:42.476Z,4.15
2023-03-30T21:12:29.011Z,4.88
2023-03-30T21:15:15.165Z,4.43
2023-03-30T21:18:00.537Z,4.10
2023-03-30T21:20:45.711Z,4.25
2023-03-30T21:23:31.068Z,4.30
2023-03-30T21:26:18.658Z,4.40
2023-03-30T21:29:05.154Z,3.80
2023-03-30T21:31:51.176Z,3.90
2023-03-30T21:34:36.929Z,4.03
2023-03-30T21:37:22.445Z,4.85
2023-03-30T21:40:08.780Z,4.28
2023-03-30T21:42:54.326Z,4.18
2023-03-30T21:45:39.812Z,4.18
2023-03-30T21:48:27.051Z,4.07
2023-03-30T21:51:21.420Z,4.10
2023-03-30T21:54:07.762Z,4.22
2023-03-30T21:56:53.336Z,4.13
2023-03-30T21:59:39.036Z,3.85
2023-03-30T22:02:24.770Z,4.43
2023-03-30T22:05:11.296Z,4.75
2023-03-30T22:07:56.914Z,4.60
2023-03-30T22:10:42.882Z,3.88
2023-03-30T22:13:29.045Z,3.50
2023-03-30T22:16:31.624Z,3.53
2023-03-30T22:19:18.973Z,4.25
2023-03-30T22:22:04.951Z,3.58
2023-03-30T22:24:50.358Z,3.65
2023-03-30T22:27:36.086Z,4.32
2023-03-30T22:30:21.461Z,4.07
2023-03-30T22:33:07.153Z,4.05
2023-03-30T22:35:52.710Z,3.97
2023-03-30T22:38:39.489Z,3.88
2023-03-30T22:41:26.685Z,4.30
2023-03-30T22:44:12.516Z,3.95
2023-03-30T22:46:58.316Z,4.05
2023-03-30T22:49:43.919Z,3.70
2023-03-30T22:52:30.269Z,4.38
2023-03-30T22:55:15.919Z,4.35
2023-03-30T22:58:01.644Z,3.85
2023-03-30T23:00:46.999Z,4.13
2023-03-30T23:03:32.490Z,3.30
2023-03-30T23:06:19.210Z,3.40
2023-03-30T23:09:05.152Z,4.22
2023-03-30T23:11:51.477Z,3.00
2023-03-30T23:14:38.180Z,3.50
2023-03-30T23:17:24.557Z,3.20
2023-03-30T23:20:11.758Z,3.53
2023-03-30T23:22:57.571Z,4.10
2023-03-30T23:25:50.713Z,4.72
2023-03-30T23:28:41.956Z,4.05
2023-03-30T23:31:27.757Z,4.22
2023-03-30T23:34:13.499Z,3.45
2023-03-30T23:37:02.579Z,3.63
2023-03-30T23:39:48.610Z,3.33
2023-03-30T23:42:34.331Z,3.15
2023-03-30T23:45:19.951Z,2.90
2023-03-30T23:48:05.419Z,3.65
2023-03-30T23:50:51.148Z,3.50
2023-03-30T23:53:40.238Z,3.25
2023-03-30T23:56:27.694Z,3.40
2023-03-30T23:59:13.802Z,3.97
